Time;durP1;ratioP1;P1;durP2;ratioP2;P2;SDS_P1;SDS_P2;PMS_P1;PMS_P2;Temp;Humidity;BMP_temperature;BMP_pressure;BME280_temperature;BME280_humidity;BME280_pressure;Samples;Min_cycle;Max_cycle;Signal;HPM_P1;HPM_P2
2023/07/28 00:00:43;;;;;;;9.73;5.75;;;;;;;-148.88;100.00;-17125.47;5034758;28;20048;-71
2023/07/28 00:03:08;;;;;;;7.32;5.15;;;;;;;-148.88;100.00;-17125.47;5034839;28;20101;-69
2023/07/28 00:05:36;;;;;;;8.13;5.82;;;;;;;-148.88;100.00;-17125.47;5035084;28;20069;-70
2023/07/28 00:08:02;;;;;;;7.80;5.85;;;;;;;-148.88;100.00;-17125.47;5034685;28;20098;-71
2023/07/28 00:10:27;;;;;;;10.10;5.85;;;;;;;-148.88;100.00;-17125.47;5034733;28;20450;-71
2023/07/28 00:12:53;;;;;;;7.57;5.55;;;;;;;-148.88;100.00;-17125.47;5034546;28;20025;-69
2023/07/28 00:15:18;;;;;;;8.43;5.50;;;;;;;-148.88;100.00;-17125.47;5034819;28;20033;-69
2023/07/28 00:17:44;;;;;;;7.50;4.53;;;;;;;-148.88;100.00;-17125.47;5034350;28;20025;-69
2023/07/28 00:20:10;;;;;;;6.95;4.65;;;;;;;-148.88;100.00;-17125.47;5034477;28;20128;-69
2023/07/28 00:22:35;;;;;;;7.15;4.57;;;;;;;-148.88;100.00;-17125.47;5034374;28;20038;-69
2023/07/28 00:25:01;;;;;;;7.82;4.30;;;;;;;-148.88;100.00;-17125.47;5034333;28;20052;-69
2023/07/28 00:27:26;;;;;;;8.10;4.30;;;;;;;-148.88;100.00;-17125.47;5034439;28;20021;-70
2023/07/28 00:29:52;;;;;;;6.18;4.60;;;;;;;-148.88;100.00;-17125.47;5034288;28;20464;-69
2023/07/28 00:32:17;;;;;;;5.80;4.50;;;;;;;-148.88;100.00;-17125.47;5034205;28;20029;-69
2023/07/28 00:52:18;;;;;;;10.43;5.40;;;;;;;-148.88;100.00;-17125.47;5034092;28;20086;-69
2023/07/28 00:54:45;;;;;;;11.55;5.07;;;;;;;-148.88;100.00;-17125.47;5033335;28;20060;-68
2023/07/28 00:57:11;;;;;;;11.18;5.03;;;;;;;-148.88;100.00;-17125.47;5033617;28;20099;-69
2023/07/28 00:59:37;;;;;;;7.07;5.30;;;;;;;-148.88;100.00;-17125.47;5033699;28;20468;-69
2023/07/28 01:02:02;;;;;;;9.52;5.18;;;;;;;-148.88;100.00;-17125.47;5033521;28;20028;-69
2023/07/28 01:04:28;;;;;;;8.52;5.30;;;;;;;-148.88;100.00;-17125.47;5033887;28;20030;-69
2023/07/28 01:07:15;;;;;;;9.80;5.57;;;;;;;-148.88;100.00;-17125.47;5033445;28;20384;-69
2023/07/28 01:09:53;;;;;;;8.85;5.18;;;;;;;-148.88;100.00;-17125.47;5033450;28;20039;-69
2023/07/28 01:12:18;;;;;;;8.13;5.18;;;;;;;-148.88;100.00;-17125.47;5033447;28;20023;-69
2023/07/28 01:14:44;;;;;;;9.45;5.35;;;;;;;-148.88;100.00;-17125.47;5033308;28;20383;-69
2023/07/28 01:17:10;;;;;;;10.40;5.78;;;;;;;-148.88;100.00;-17125.47;5033302;28;20067;-69
2023/07/28 01:19:36;;;;;;;10.57;5.53;;;;;;;-148.88;100.00;-17125.47;5032065;28;20488;-69
2023/07/28 01:22:09;;;;;;;8.65;5.55;;;;;;;-148.88;100.00;-17125.47;5033428;28;20035;-71
2023/07/28 01:24:49;;;;;;;10.38;5.95;;;;;;;-148.88;100.00;-17125.47;5033274;28;20032;-70
2023/07/28 01:27:15;;;;;;;8.18;5.07;;;;;;;-148.88;100.00;-17125.47;5033176;28;20025;-70
2023/07/28 01:29:40;;;;;;;9.95;5.70;;;;;;;-148.88;100.00;-17125.47;5033153;28;20562;-70
2023/07/28 01:32:06;;;;;;;8.45;5.43;;;;;;;-148.88;100.00;-17125.47;5033030;28;20447;-69
2023/07/28 01:34:31;;;;;;;7.15;4.88;;;;;;;-148.88;100.00;-17125.47;5033058;28;20029;-69
2023/07/28 01:36:56;;;;;;;6.78;4.68;;;;;;;-148.88;100.00;-17125.47;5032806;28;20106;-69
2023/07/28 01:39:22;;;;;;;9.15;4.90;;;;;;;-148.88;100.00;-17125.47;5033106;28;20480;-69
2023/07/28 01:41:47;;;;;;;7.32;4.78;;;;;;;-148.88;100.00;-17125.47;5032990;28;20025;-69
2023/07/28 01:44:12;;;;;;;8.27;4.60;;;;;;;-148.88;100.00;-17125.47;5033049;28;20105;-70
2023/07/28 01:46:39;;;;;;;9.40;4.85;;;;;;;-148.88;100.00;-17125.47;5032983;28;20044;-69
2023/07/28 01:49:04;;;;;;;9.15;4.95;;;;;;;-148.88;100.00;-17125.47;5032860;28;20021;-69
2023/07/28 01:51:30;;;;;;;10.10;4.40;;;;;;;-148.88;100.00;-17125.47;5031778;28;20566;-69
2023/07/28 01:53:55;;;;;;;5.97;4.07;;;;;;;-148.88;100.00;-17125.47;5032922;28;20022;-69
2023/07/28 01:56:20;;;;;;;8.45;4.47;;;;;;;-148.88;100.00;-17125.47;5032751;28;20026;-69
2023/07/28 01:58:45;;;;;;;8.52;5.10;;;;;;;-148.88;100.00;-17125.47;5031547;28;20029;-69
2023/07/28 02:01:13;;;;;;;8.70;4.68;;;;;;;-148.88;100.00;-17125.47;5032831;28;20072;-70
2023/07/28 02:03:38;;;;;;;8.30;4.63;;;;;;;-148.88;100.00;-17125.47;5033089;28;20036;-70
2023/07/28 02:06:03;;;;;;;9.60;5.40;;;;;;;-148.88;100.00;-17125.47;5032752;28;20025;-69
2023/07/28 02:08:29;;;;;;;7.80;4.68;;;;;;;-148.88;100.00;-17125.47;5032700;28;20072;-70
2023/07/28 02:10:54;;;;;;;7.50;4.85;;;;;;;-148.88;100.00;-17125.47;5032426;28;20437;-69
2023/07/28 02:13:19;;;;;;;10.30;4.18;;;;;;;-148.88;100.00;-17125.47;5032714;28;20490;-69
2023/07/28 02:15:45;;;;;;;7.43;4.53;;;;;;;-148.88;100.00;-17125.47;5032642;28;20029;-69
2023/07/28 02:18:10;;;;;;;6.75;4.18;;;;;;;-148.88;100.00;-17125.47;5032515;28;20029;-70
2023/07/28 02:20:35;;;;;;;8.95;4.20;;;;;;;-148.88;100.00;-17125.47;5032723;28;20033;-69
2023/07/28 02:23:02;;;;;;;9.25;4.93;;;;;;;-148.88;100.00;-17125.47;5032521;28;20028;-69
2023/07/28 02:25:27;;;;;;;8.88;5.10;;;;;;;-148.88;100.00;-17125.47;5032742;28;20537;-69
2023/07/28 02:27:52;;;;;;;8.60;4.78;;;;;;;-148.88;100.00;-17125.47;5032509;28;20096;-70
2023/07/28 02:30:17;;;;;;;7.38;4.28;;;;;;;-148.88;100.00;-17125.47;5032597;28;20388;-70
2023/07/28 02:32:43;;;;;;;6.82;4.05;;;;;;;-148.88;100.00;-17125.47;5042965;23;20603;-70
2023/07/28 02:35:10;;;;;;;7.82;4.30;;;;;;;-148.88;100.00;-17125.47;5032476;28;20038;-70
2023/07/28 02:37:35;;;;;;;7.35;4.30;;;;;;;-148.88;100.00;-17125.47;5032448;28;20025;-70
2023/07/28 02:40:01;;;;;;;4.95;3.28;;;;;;;-148.88;100.00;-17125.47;5032658;28;20391;-70
2023/07/28 02:42:26;;;;;;;7.38;3.72;;;;;;;-148.88;100.00;-17125.47;5032582;28;20021;-70
2023/07/28 02:44:52;;;;;;;6.43;3.97;;;;;;;-148.88;100.00;-17125.47;5055345;22;20071;-85
2023/07/28 02:47:17;;;;;;;9.35;4.50;;;;;;;-148.88;100.00;-17125.47;5014379;28;20049;-85
2023/07/28 02:49:45;;;;;;;7.82;4.13;;;;;;;-148.88;100.00;-17125.47;5030922;28;20030;-85
2023/07/28 02:52:11;;;;;;;8.55;4.30;;;;;;;-148.88;100.00;-17125.47;5013798;28;20030;-85
2023/07/28 02:54:39;;;;;;;10.02;4.55;;;;;;;-148.88;100.00;-17125.47;5013945;28;20029;-85
2023/07/28 02:57:04;;;;;;;7.95;4.35;;;;;;;-148.88;100.00;-17125.47;5012059;28;20026;-85
2023/07/28 02:59:32;;;;;;;8.00;4.43;;;;;;;-148.88;100.00;-17125.47;5012776;28;20034;-85
2023/07/28 03:02:06;;;;;;;7.97;4.30;;;;;;;-148.88;100.00;-17125.47;5016663;28;20029;-85
2023/07/28 03:04:32;;;;;;;7.18;4.30;;;;;;;-148.88;100.00;-17125.47;5016204;28;20033;-85
2023/07/28 03:06:57;;;;;;;7.22;4.53;;;;;;;-148.88;100.00;-17125.47;5018204;28;20022;-85
2023/07/28 03:09:23;;;;;;;7.82;5.15;;;;;;;-148.88;100.00;-17125.47;5016882;28;20030;-85
2023/07/28 03:11:48;;;;;;;7.85;5.05;;;;;;;-148.88;100.00;-17125.47;5016727;28;20113;-84
2023/07/28 03:14:13;;;;;;;7.90;5.30;;;;;;;-148.88;100.00;-17125.47;5016974;28;20121;-84
2023/07/28 03:16:40;;;;;;;9.60;5.53;;;;;;;-148.88;100.00;-17125.47;5015808;28;20087;-86
2023/07/28 03:19:05;;;;;;;9.02;5.43;;;;;;;-148.88;100.00;-17125.47;5016795;28;20038;-85
2023/07/28 03:21:31;;;;;;;12.32;6.28;;;;;;;-148.88;100.00;-17125.47;5015869;28;20454;-84
2023/07/28 03:23:56;;;;;;;10.50;6.10;;;;;;;-148.88;100.00;-17125.47;5016232;28;20017;-85
2023/07/28 03:26:22;;;;;;;11.55;6.57;;;;;;;-148.88;100.00;-17125.47;5017246;28;20028;-85
2023/07/28 03:28:47;;;;;;;10.57;5.88;;;;;;;-148.88;100.00;-17125.47;5018193;28;20369;-84
2023/07/28 03:31:13;;;;;;;9.55;6.15;;;;;;;-148.88;100.00;-17125.47;5017193;28;20017;-83
2023/07/28 03:33:38;;;;;;;10.20;6.60;;;;;;;-148.88;100.00;-17125.47;5015753;28;20037;-84
2023/07/28 03:36:03;;;;;;;10.65;6.55;;;;;;;-148.88;100.00;-17125.47;5032279;28;20034;-84
2023/07/28 03:38:29;;;;;;;10.40;6.60;;;;;;;-148.88;100.00;-17125.47;5017422;28;20485;-84
2023/07/28 03:40:54;;;;;;;12.40;6.93;;;;;;;-148.88;100.00;-17125.47;5017408;28;20022;-84
2023/07/28 03:43:20;;;;;;;12.30;7.47;;;;;;;-148.88;100.00;-17125.47;5016273;28;20026;-85
2023/07/28 03:45:45;;;;;;;12.57;7.32;;;;;;;-148.88;100.00;-17125.47;5015050;28;20025;-84
2023/07/28 03:48:11;;;;;;;11.27;7.00;;;;;;;-148.88;100.00;-17125.47;5017272;28;20022;-85
2023/07/28 03:50:36;;;;;;;13.15;7.40;;;;;;;-148.88;100.00;-17125.47;5017000;28;20026;-85
2023/07/28 03:53:01;;;;;;;12.38;7.97;;;;;;;-148.88;100.00;-17125.47;5015731;28;20030;-86
2023/07/28 03:55:27;;;;;;;12.35;7.68;;;;;;;-148.88;100.00;-17125.47;5015982;28;20100;-86
2023/07/28 03:57:52;;;;;;;13.85;8.27;;;;;;;-148.88;100.00;-17125.47;5016923;28;20025;-86
2023/07/28 04:00:23;;;;;;;14.57;9.02;;;;;;;-148.88;100.00;-17125.47;5015473;28;20065;-85
2023/07/28 04:02:48;;;;;;;12.30;8.40;;;;;;;-148.88;100.00;-17125.47;5019103;28;20034;-85
2023/07/28 04:05:17;;;;;;;16.15;8.27;;;;;;;-148.88;100.00;-17125.47;5017132;28;20393;-84
2023/07/28 04:07:51;;;;;;;15.63;8.23;;;;;;;-148.88;100.00;-17125.47;5017329;28;20392;-86
2023/07/28 04:10:17;;;;;;;13.23;7.97;;;;;;;-148.88;100.00;-17125.47;5015036;28;20396;-87
2023/07/28 04:12:42;;;;;;;13.68;8.45;;;;;;;-148.88;100.00;-17125.47;5013482;28;20476;-84
2023/07/28 04:15:08;;;;;;;12.95;7.75;;;;;;;-148.88;100.00;-17125.47;5016501;28;20030;-85
2023/07/28 04:17:34;;;;;;;11.55;8.13;;;;;;;-148.88;100.00;-17125.47;5015312;28;20124;-85
2023/07/28 04:20:02;;;;;;;12.50;7.35;;;;;;;-148.88;100.00;-17125.47;5017079;28;20492;-85
2023/07/28 04:22:28;;;;;;;12.82;7.35;;;;;;;-148.88;100.00;-17125.47;5014892;28;20025;-85
2023/07/28 04:24:59;;;;;;;9.32;6.82;;;;;;;-148.88;100.00;-17125.47;5014929;28;20477;-84
2023/07/28 04:27:24;;;;;;;11.27;7.75;;;;;;;-148.88;100.00;-17125.47;5016353;28;20535;-85
2023/07/28 04:29:50;;;;;;;10.77;7.00;;;;;;;-148.88;100.00;-17125.47;5014622;28;20026;-84
2023/07/28 04:32:15;;;;;;;13.10;7.63;;;;;;;-148.88;100.00;-17125.47;5015891;28;20026;-86
2023/07/28 04:34:42;;;;;;;11.43;6.88;;;;;;;-148.88;100.00;-17125.47;5015777;28;20396;-87
2023/07/28 04:37:07;;;;;;;11.82;7.45;;;;;;;-148.88;100.00;-17125.47;5014507;28;20514;-85
2023/07/28 04:39:32;;;;;;;11.40;6.43;;;;;;;-148.88;100.00;-17125.47;5015093;28;20029;-86
2023/07/28 04:41:58;;;;;;;12.15;6.93;;;;;;;-148.88;100.00;-17125.47;5013984;28;20484;-85
2023/07/28 04:44:23;;;;;;;10.77;6.90;;;;;;;-148.88;100.00;-17125.47;5015170;28;20393;-84
2023/07/28 04:46:48;;;;;;;11.85;6.72;;;;;;;-148.88;100.00;-17125.47;5013700;28;20026;-85
2023/07/28 04:49:16;;;;;;;10.23;6.38;;;;;;;-148.88;100.00;-17125.47;5015453;28;20458;-84
2023/07/28 04:51:42;;;;;;;9.95;6.22;;;;;;;-148.88;100.00;-17125.47;5016113;28;20056;-84
2023/07/28 04:54:07;;;;;;;11.23;5.80;;;;;;;-148.88;100.00;-17125.47;5017950;28;20025;-85
2023/07/28 04:56:32;;;;;;;8.48;6.03;;;;;;;-148.88;100.00;-17125.47;5016732;28;20029;-85
2023/07/28 04:58:58;;;;;;;12.73;6.65;;;;;;;-148.88;100.00;-17125.47;5015099;28;20126;-85
2023/07/28 05:01:27;;;;;;;11.35;6.15;;;;;;;-148.88;100.00;-17125.47;5016538;28;20034;-84
2023/07/28 05:03:52;;;;;;;10.32;5.88;;;;;;;-148.88;100.00;-17125.47;5016052;28;20026;-85
2023/07/28 05:06:18;;;;;;;10.20;6.38;;;;;;;-148.88;100.00;-17125.47;5016136;28;20093;-85
2023/07/28 05:08:43;;;;;;;10.32;6.10;;;;;;;-148.88;100.00;-17125.47;5016854;28;20435;-85
2023/07/28 05:11:09;;;;;;;9.60;6.45;;;;;;;-148.88;100.00;-17125.47;5014070;28;20025;-85
2023/07/28 05:13:34;;;;;;;8.73;6.15;;;;;;;-148.88;100.00;-17125.47;5015063;28;20026;-85
2023/07/28 05:16:00;;;;;;;8.30;5.32;;;;;;;-148.88;100.00;-17125.47;5019970;28;20061;-85
2023/07/28 05:18:25;;;;;;;10.30;6.07;;;;;;;-148.88;100.00;-17125.47;5020696;28;20022;-85
2023/07/28 05:20:50;;;;;;;8.93;6.10;;;;;;;-148.88;100.00;-17125.47;5019742;28;20072;-84
2023/07/28 05:23:16;;;;;;;8.95;5.80;;;;;;;-148.88;100.00;-17125.47;5015945;28;20030;-83
2023/07/28 05:25:41;;;;;;;11.20;6.43;;;;;;;-148.88;100.00;-17125.47;5016077;28;20026;-83
2023/07/28 05:28:07;;;;;;;10.43;6.65;;;;;;;-148.88;100.00;-17125.47;5017553;28;20022;-84
2023/07/28 05:30:32;;;;;;;11.43;6.72;;;;;;;-148.88;100.00;-17125.47;5015666;28;20022;-84
2023/07/28 05:32:57;;;;;;;12.50;7.10;;;;;;;-148.88;100.00;-17125.47;5017170;28;20022;-85
2023/07/28 05:35:23;;;;;;;11.63;7.22;;;;;;;-148.88;100.00;-17125.47;5018283;28;20029;-85
2023/07/28 05:37:48;;;;;;;13.18;6.93;;;;;;;-148.88;100.00;-17125.47;5018204;28;20028;-84
2023/07/28 05:40:13;;;;;;;11.23;7.05;;;;;;;-148.88;100.00;-17125.47;5015299;28;20022;-85
2023/07/28 05:42:39;;;;;;;12.50;7.60;;;;;;;-148.88;100.00;-17125.47;5014745;28;20032;-85
2023/07/28 05:45:05;;;;;;;10.52;7.15;;;;;;;-148.88;100.00;-17125.47;5016286;28;20524;-85
2023/07/28 05:47:30;;;;;;;12.13;7.40;;;;;;;-148.88;100.00;-17125.47;5016267;28;20025;-85
2023/07/28 05:49:55;;;;;;;11.48;7.38;;;;;;;-148.88;100.00;-17125.47;5016245;28;20266;-85
2023/07/28 05:52:22;;;;;;;12.95;7.10;;;;;;;-148.88;100.00;-17125.47;5017067;28;20073;-84
2023/07/28 05:54:48;;;;;;;11.05;7.22;;;;;;;-148.88;100.00;-17125.47;5015693;28;20040;-85
2023/07/28 05:57:13;;;;;;;11.82;7.40;;;;;;;-148.88;100.00;-17125.47;5017365;28;20034;-85
2023/07/28 05:59:38;;;;;;;9.77;6.97;;;;;;;-148.88;100.00;-17125.47;5017259;28;20056;-85
2023/07/28 06:02:04;;;;;;;12.23;7.68;;;;;;;-148.88;100.00;-17125.47;5014300;28;20029;-84
2023/07/28 06:04:29;;;;;;;11.02;6.78;;;;;;;-148.88;100.00;-17125.47;5014825;28;20213;-85
2023/07/28 06:06:54;;;;;;;10.88;6.88;;;;;;;-148.88;100.00;-17125.47;5014637;28;20427;-85
2023/07/28 06:09:20;;;;;;;9.30;6.07;;;;;;;-148.88;100.00;-17125.47;5016554;28;20114;-85
2023/07/28 06:11:45;;;;;;;10.90;6.95;;;;;;;-148.88;100.00;-17125.47;5014455;28;20022;-84
2023/07/28 06:14:10;;;;;;;9.82;6.65;;;;;;;-148.88;100.00;-17125.47;5016602;28;20029;-84
2023/07/28 06:16:36;;;;;;;9.32;6.68;;;;;;;-148.88;100.00;-17125.47;5014688;28;20022;-85
2023/07/28 06:19:01;;;;;;;9.88;6.35;;;;;;;-148.88;100.00;-17125.47;5017256;28;20022;-84
2023/07/28 06:21:26;;;;;;;11.00;6.20;;;;;;;-148.88;100.00;-17125.47;5017834;28;20029;-85
2023/07/28 06:23:52;;;;;;;8.75;6.15;;;;;;;-148.88;100.00;-17125.47;5015650;28;20079;-85
2023/07/28 06:26:17;;;;;;;8.82;6.45;;;;;;;-148.88;100.00;-17125.47;5017232;28;20018;-85
2023/07/28 06:28:45;;;;;;;8.98;6.20;;;;;;;-148.88;100.00;-17125.47;5015387;28;20033;-84
2023/07/28 06:31:10;;;;;;;9.82;6.00;;;;;;;-148.88;100.00;-17125.47;5014831;28;20053;-85
2023/07/28 06:33:36;;;;;;;9.60;5.95;;;;;;;-148.88;100.00;-17125.47;5014800;28;20029;-85
2023/07/28 06:36:03;;;;;;;7.60;5.72;;;;;;;-148.88;100.00;-17125.47;5016332;28;20446;-84
2023/07/28 06:38:28;;;;;;;9.05;6.00;;;;;;;-148.88;100.00;-17125.47;5018139;28;20025;-84
2023/07/28 06:40:54;;;;;;;9.13;6.45;;;;;;;-148.88;100.00;-17125.47;5018805;28;20040;-84
2023/07/28 06:43:19;;;;;;;10.88;6.25;;;;;;;-148.88;100.00;-17125.47;5020154;28;20420;-84
2023/07/28 06:45:45;;;;;;;11.57;6.60;;;;;;;-148.88;100.00;-17125.47;5020431;28;20032;-84
2023/07/28 06:48:10;;;;;;;9.73;6.00;;;;;;;-148.88;100.00;-17125.47;5019629;28;20030;-85
2023/07/28 06:50:35;;;;;;;8.93;6.18;;;;;;;-148.88;100.00;-17125.47;5016840;28;20088;-84
2023/07/28 06:53:01;;;;;;;8.75;6.47;;;;;;;-148.88;100.00;-17125.47;5017668;28;20030;-85
2023/07/28 06:55:26;;;;;;;9.07;6.20;;;;;;;-148.88;100.00;-17125.47;5021373;28;20022;-85
2023/07/28 06:57:52;;;;;;;10.23;6.68;;;;;;;-148.88;100.00;-17125.47;5021175;28;20110;-84
2023/07/28 07:00:20;;;;;;;10.93;7.25;;;;;;;-148.88;100.00;-17125.47;5019224;28;20058;-84
2023/07/28 07:02:46;;;;;;;12.77;7.50;;;;;;;-148.88;100.00;-17125.47;5018472;28;20404;-85
2023/07/28 07:05:11;;;;;;;10.23;6.75;;;;;;;-148.88;100.00;-17125.47;5020453;28;20018;-85
2023/07/28 07:07:43;;;;;;;11.82;7.70;;;;;;;-148.88;100.00;-17125.47;5023147;28;20053;-85
2023/07/28 07:10:09;;;;;;;11.45;7.75;;;;;;;-148.88;100.00;-17125.47;5021806;28;20036;-84
2023/07/28 07:12:35;;;;;;;10.70;7.43;;;;;;;-148.88;100.00;-17125.47;5020232;28;20117;-85
2023/07/28 07:15:01;;;;;;;10.07;7.13;;;;;;;-148.88;100.00;-17125.47;5020865;28;20054;-84
2023/07/28 07:17:26;;;;;;;11.88;7.57;;;;;;;-148.88;100.00;-17125.47;5018994;28;20389;-84
2023/07/28 07:19:51;;;;;;;11.32;7.70;;;;;;;-148.88;100.00;-17125.47;5016855;28;20401;-84
2023/07/28 07:22:20;;;;;;;9.52;6.80;;;;;;;-148.88;100.00;-17125.47;5017280;28;20025;-85
2023/07/28 07:24:45;;;;;;;10.02;7.22;;;;;;;-148.88;100.00;-17125.47;5016346;28;20400;-85
2023/07/28 07:27:29;;;;;;;11.20;6.72;;;;;;;-148.88;100.00;-17125.47;5015787;28;20018;-85
2023/07/28 07:29:54;;;;;;;10.23;6.55;;;;;;;-148.88;100.00;-17125.47;5016031;28;20120;-85
2023/07/28 07:32:19;;;;;;;8.35;6.38;;;;;;;-148.88;100.00;-17125.47;5015163;28;20180;-86
2023/07/28 07:34:54;;;;;;;9.43;6.80;;;;;;;-148.88;100.00;-17125.47;5016998;28;20127;-85
2023/07/28 07:37:31;;;;;;;;;;;;;;;;;;;;;
2023/07/28 07:39:59;;;;;;;8.38;6.30;;;;;;;-148.88;100.00;-17125.47;5017866;28;20028;-85
2023/07/28 07:42:47;;;;;;;10.82;6.88;;;;;;;-148.88;100.00;-17125.47;5017586;28;20467;-84
2023/07/28 07:45:16;;;;;;;12.27;7.95;;;;;;;-148.88;100.00;-17125.47;5016974;28;20029;-85
2023/07/28 07:47:48;;;;;;;12.85;8.05;;;;;;;-148.88;100.00;-17125.47;5015392;28;20025;-84
2023/07/28 07:50:13;;;;;;;14.25;9.45;;;;;;;-148.88;100.00;-17125.47;5016518;28;20026;-85
2023/07/28 07:52:47;;;;;;;12.85;8.80;;;;;;;-148.88;100.00;-17125.47;5017299;28;20418;-84
2023/07/28 07:55:13;;;;;;;14.30;8.75;;;;;;;-148.88;100.00;-17125.47;5016181;28;20033;-84
2023/07/28 07:57:40;;;;;;;12.05;8.25;;;;;;;-148.88;100.00;-17125.47;5015339;28;20087;-85
2023/07/28 08:00:10;;;;;;;12.77;8.63;;;;;;;-148.88;100.00;-17125.47;5014995;28;20036;-85
2023/07/28 08:02:39;;;;;;;12.90;8.43;;;;;;;-148.88;100.00;-17125.47;5015794;28;20026;-85
2023/07/28 08:05:14;;;;;;;11.50;8.30;;;;;;;-148.88;100.00;-17125.47;5016312;28;20036;-84
2023/07/28 08:07:47;;;;;;;10.70;7.75;;;;;;;-148.88;100.00;-17125.47;5015005;28;20025;-85
2023/07/28 08:10:16;;;;;;;9.45;7.65;;;;;;;-148.88;100.00;-17125.47;5015451;28;20030;-86
2023/07/28 08:12:44;;;;;;;9.85;7.32;;;;;;;-148.88;100.00;-17125.47;5014948;28;20038;-85
2023/07/28 08:15:12;;;;;;;9.30;7.40;;;;;;;-148.88;100.00;-17125.47;5015308;28;20587;-86
2023/07/28 08:17:38;;;;;;;8.50;7.05;;;;;;;-148.88;100.00;-17125.47;5014858;28;20448;-87
2023/07/28 08:20:08;;;;;;;9.93;7.22;;;;;;;-148.88;100.00;-17125.47;5015352;28;20557;-86
2023/07/28 08:22:36;;;;;;;9.73;6.63;;;;;;;-148.88;100.00;-17125.47;5016354;28;20026;-86
2023/07/28 08:25:05;;;;;;;8.60;6.30;;;;;;;-148.88;100.00;-17125.47;5015056;28;20034;-85
2023/07/28 08:27:38;;;;;;;8.60;6.85;;;;;;;-148.88;100.00;-17125.47;5016481;28;20114;-87
2023/07/28 08:30:07;;;;;;;9.32;6.70;;;;;;;-148.88;100.00;-17125.47;5018009;28;20029;-86
2023/07/28 08:32:33;;;;;;;8.00;6.50;;;;;;;-148.88;100.00;-17125.47;5015621;28;20040;-86
2023/07/28 08:35:04;;;;;;;7.97;6.75;;;;;;;-148.88;100.00;-17125.47;5015385;28;20068;-85
2023/07/28 08:37:33;;;;;;;8.90;6.75;;;;;;;-148.88;100.00;-17125.47;5015810;28;20022;-85
2023/07/28 08:40:08;;;;;;;8.85;6.50;;;;;;;-148.88;100.00;-17125.47;5020837;28;20064;-83
2023/07/28 08:42:40;;;;;;;7.95;5.93;;;;;;;-148.88;100.00;-17125.47;5017399;28;20022;-85
2023/07/28 08:45:08;;;;;;;8.20;6.78;;;;;;;-148.88;100.00;-17125.47;5021044;28;20484;-84
2023/07/28 08:47:36;;;;;;;8.18;6.13;;;;;;;-148.88;100.00;-17125.47;5018665;28;20044;-85
2023/07/28 08:50:20;;;;;;;6.85;5.78;;;;;;;-148.88;100.00;-17125.47;5018365;28;20535;-85
2023/07/28 08:52:59;;;;;;;7.65;6.13;;;;;;;-148.88;100.00;-17125.47;5018240;28;20443;-85
2023/07/28 08:55:25;;;;;;;7.60;5.82;;;;;;;-148.88;100.00;-17125.47;5019455;28;20022;-84
2023/07/28 08:58:13;;;;;;;8.30;5.85;;;;;;;-148.88;100.00;-17125.47;5017186;28;20081;-85
2023/07/28 09:00:42;;;;;;;7.53;5.50;;;;;;;-148.88;100.00;-17125.47;5019734;28;20113;-83
2023/07/28 09:03:11;;;;;;;6.97;5.07;;;;;;;-148.88;100.00;-17125.47;5017905;28;20026;-82
2023/07/28 09:05:37;;;;;;;8.45;5.20;;;;;;;-148.88;100.00;-17125.47;5017662;28;20488;-82
2023/07/28 09:08:03;;;;;;;7.57;4.80;;;;;;;-148.88;100.00;-17125.47;5015192;28;20025;-82
2023/07/28 09:10:49;;;;;;;6.90;4.82;;;;;;;-148.88;100.00;-17125.47;5015166;28;20048;-82
2023/07/28 09:13:16;;;;;;;7.22;4.88;;;;;;;-148.88;100.00;-17125.47;5017212;28;20026;-82
2023/07/28 09:15:42;;;;;;;5.45;4.05;;;;;;;-148.88;100.00;-17125.47;5017630;28;20045;-82
2023/07/28 09:18:12;;;;;;;6.72;4.50;;;;;;;-148.88;100.00;-17125.47;5018069;28;20133;-81
2023/07/28 09:20:43;;;;;;;6.45;4.70;;;;;;;-148.88;100.00;-17125.47;5018849;28;20536;-82
2023/07/28 09:23:09;;;;;;;6.72;4.93;;;;;;;-148.88;100.00;-17125.47;5017515;28;20098;-82
2023/07/28 09:25:36;;;;;;;6.10;4.35;;;;;;;-148.88;100.00;-17125.47;5019338;28;20022;-83
2023/07/28 09:28:02;;;;;;;8.50;5.03;;;;;;;-148.88;100.00;-17125.47;5019560;28;20022;-82
2023/07/28 09:30:44;;;;;;;7.45;4.80;;;;;;;-148.88;100.00;-17125.47;5019667;28;20065;-82
2023/07/28 09:33:10;;;;;;;6.95;5.10;;;;;;;-148.88;100.00;-17125.47;5019483;28;20396;-82
2023/07/28 09:35:50;;;;;;;7.10;5.03;;;;;;;-148.88;100.00;-17125.47;5020195;28;20488;-82
2023/07/28 09:38:16;;;;;;;7.82;5.28;;;;;;;-148.88;100.00;-17125.47;5020839;28;20030;-83
2023/07/28 09:40:43;;;;;;;8.45;5.18;;;;;;;-148.88;100.00;-17125.47;5018233;28;20026;-82
2023/07/28 09:43:08;;;;;;;5.82;4.50;;;;;;;-148.88;100.00;-17125.47;5019391;28;20087;-82
2023/07/28 09:45:35;;;;;;;8.90;5.18;;;;;;;-148.88;100.00;-17125.47;5020443;28;20013;-81
2023/07/28 09:48:02;;;;;;;7.22;5.00;;;;;;;-148.88;100.00;-17125.47;5032205;28;20026;-80
2023/07/28 09:50:31;;;;;;;6.65;4.63;;;;;;;-148.88;100.00;-17125.47;5032126;28;20030;-82
2023/07/28 09:53:02;;;;;;;5.75;4.60;;;;;;;-148.88;100.00;-17125.47;5023484;28;20113;-83
2023/07/28 09:55:28;;;;;;;5.68;4.03;;;;;;;-148.88;100.00;-17125.47;5021574;28;20026;-83
2023/07/28 09:57:55;;;;;;;7.80;5.03;;;;;;;-148.88;100.00;-17125.47;5021181;28;20080;-83
2023/07/28 10:00:22;;;;;;;5.93;4.50;;;;;;;-148.88;100.00;-17125.47;5020693;28;20030;-82
2023/07/28 10:02:48;;;;;;;5.70;4.53;;;;;;;-148.88;100.00;-17125.47;5020464;28;20088;-82
2023/07/28 10:05:15;;;;;;;6.95;4.57;;;;;;;-148.88;100.00;-17125.47;5020195;28;20053;-83
2023/07/28 10:07:42;;;;;;;5.47;4.28;;;;;;;-148.88;100.00;-17125.47;5020400;28;20101;-82
2023/07/28 10:10:11;;;;;;;6.97;4.43;;;;;;;-148.88;100.00;-17125.47;5022624;28;20022;-83
2023/07/28 10:12:43;;;;;;;6.30;4.15;;;;;;;-148.88;100.00;-17125.47;5023950;28;20440;-83
2023/07/28 10:15:15;;;;;;;4.97;3.70;;;;;;;-148.88;100.00;-17125.47;5023449;28;20041;-83
2023/07/28 10:17:44;;;;;;;6.70;4.75;;;;;;;-148.88;100.00;-17125.47;5023452;28;20026;-83
2023/07/28 10:20:28;;;;;;;8.20;4.95;;;;;;;-148.88;100.00;-17125.47;5024240;28;20168;-83
2023/07/28 10:23:01;;;;;;;6.35;4.88;;;;;;;-148.88;100.00;-17125.47;5019766;28;20029;-82
2023/07/28 10:25:26;;;;;;;5.80;4.90;;;;;;;-148.88;100.00;-17125.47;5021002;28;20022;-82
2023/07/28 10:27:53;;;;;;;6.75;4.90;;;;;;;-148.88;100.00;-17125.47;5021646;28;20340;-82
2023/07/28 10:30:20;;;;;;;7.18;5.25;;;;;;;-148.88;100.00;-17125.47;5022509;28;20021;-83
2023/07/28 10:32:48;;;;;;;6.40;5.25;;;;;;;-148.88;100.00;-17125.47;5022568;28;20036;-83
2023/07/28 10:35:16;;;;;;;6.18;4.78;;;;;;;-148.88;100.00;-17125.47;5023550;28;20022;-83
2023/07/28 10:37:47;;;;;;;6.13;5.28;;;;;;;-148.88;100.00;-17125.47;5022717;28;20030;-82
2023/07/28 10:40:30;;;;;;;6.40;5.43;;;;;;;-148.88;100.00;-17125.47;5023792;28;20026;-83
2023/07/28 10:42:57;;;;;;;6.75;5.30;;;;;;;-148.88;100.00;-17125.47;5023676;28;20026;-83
2023/07/28 10:45:25;;;;;;;9.45;6.38;;;;;;;-148.88;100.00;-17125.47;5024137;28;20033;-83
2023/07/28 10:47:52;;;;;;;6.35;5.47;;;;;;;-148.88;100.00;-17125.47;5023478;28;20173;-82
2023/07/28 10:50:19;;;;;;;10.13;5.78;;;;;;;-148.88;100.00;-17125.47;5022802;28;20033;-82
2023/07/28 10:52:45;;;;;;;7.45;5.85;;;;;;;-148.88;100.00;-17125.47;5023669;28;20029;-82
2023/07/28 10:55:20;;;;;;;7.40;5.57;;;;;;;-148.88;100.00;-17125.47;5022233;28;20026;-83
2023/07/28 10:57:46;;;;;;;7.40;5.93;;;;;;;-148.88;100.00;-17125.47;5022657;28;20057;-83
2023/07/28 11:00:13;;;;;;;9.07;6.55;;;;;;;-148.88;100.00;-17125.47;5019576;28;20029;-82
2023/07/28 11:02:46;;;;;;;9.13;7.03;;;;;;;-148.88;100.00;-17125.47;5020070;28;20033;-82
2023/07/28 11:05:14;;;;;;;7.97;6.65;;;;;;;-148.88;100.00;-17125.47;5021998;28;20045;-83
2023/07/28 11:07:43;;;;;;;10.25;7.45;;;;;;;-148.88;100.00;-17125.47;5021631;28;20017;-82
2023/07/28 11:10:13;;;;;;;9.43;8.05;;;;;;;-148.88;100.00;-17125.47;5021793;28;20021;-82
2023/07/28 11:12:46;;;;;;;9.93;7.03;;;;;;;-148.88;100.00;-17125.47;5022464;28;20406;-83
2023/07/28 11:15:13;;;;;;;9.20;7.32;;;;;;;-148.88;100.00;-17125.47;5022234;28;20061;-83
2023/07/28 11:17:45;;;;;;;11.93;7.93;;;;;;;-148.88;100.00;-17125.47;5021276;28;20121;-82